Alco, AR

8:56 PM CDT on July 31, 2014 (GMT -0500)
Alco (KARLESLI2) Elev 1729 ft | 35.88 °N, 92.38 °W | Change Station

Current weather conditions updated 5 minutes ago

Mostly Cloudy
Mostly Cloudy
65.2 °F
Feels Like 65.2 °F
N
0.0
Wind Variable Wind from South
Gusts 0.0 mph

Tomorrow is forecast to be Much Warmer than today. Scattered thunderstorms possible.

Today
High -- | Low -- °F
--% Chance of Precip.
Yesterday
High -- | Low -- °F
Precip. -- in
6:16 AM 8:14 PM
Waxing Crescent, 22% visible
Pressure 30.06 in
Visibility 8.0 miles
Clouds Few 1600 ft
Mostly Cloudy 3400 ft
Dew Point 64 °F
Humidity 97%
Rainfall 0.64 in
Snow Depth Not available.
UV 0 out of 12
Pollen .60 out of 12
Air Quality Not available.
Flu Activity Not available.
METAR KCCA 010135Z AUTO 00000KT 8SM FEW016 BKN034 22/21 A3006 RMK AO2

More Conditions Fewer Conditions

Pressure 30.06 in
Visibility 8.0 miles
Clouds Few 1600 ft
Mostly Cloudy 3400 ft
Dew Point 64 °F
Humidity 97%
Rainfall 0.64 in
Snow Depth Not available.
UV 0 out of 12
Pollen .60 out of 12
Air Quality Not available.
Flu Activity Not available.
METAR KCCA 010135Z AUTO 00000KT 8SM FEW016 BKN034 22/21 A3006 RMK AO2

More Conditions Fewer Conditions

10-Day Weather Forecast

Almanac

Astronomy

Jul. 31, 2014 Rise Set
Actual Time 6:16 AM CDT 8:14 PM CDT
Civil Twilight 5:48 AM CDT 8:42 PM CDT
Nautical Twilight 5:13 AM CDT 9:17 PM CDT
Astronomical Twilight 4:36 AM CDT 9:53 PM CDT
Moon 10:33 AM CDT (7/31) 10:39 PM CDT (7/31)
Length of Visible Light 14h 54m
Length of Day
13h 58m
Tomorrow will be 1m 41s shorter.
Waxing Crescent, 22% of the Moon is Illuminated
Today
Waxing Crescent
Aug 3
First Quarter
Aug 10
Full
Aug 17
Last Quarter
Aug 25
New

Today's Extremes

State Highs State Lows

Community

WunderPhotos

Upload Photos

1,739,490 photos uploaded!

Nearby

Snow Depth

Station Depth Elevation
No new snow has been reported.

Earthquake Activity

City Distance Mag. Time & Date
No recent earthquake activity has been reported nearby.
Minimum magnitude displayed is 2.5.

Coastal Water Temperatures

Place Temperature
No Stations Reporting

Nearby Weather Stations

Station Location Temp. Dew Point Humidity Wind Precip. Elev Updated Type
Alco, Leslie, AR 65.2 °F 64 °F 97% South  at  0.0 mph 0.00 in / hr 1729 ft 8:51 PM CDT Normal
Meadowcreek, Fox, AR 69.7 °F 68 °F 93% SSW  at  0.0 mph 0.00 in / hr 640 ft 8:47 PM CDT Normal
Flatwoods, Mountain View, AR 70.0 °F 66 °F 87% SE  at  2.0 mph 0.00 in / hr 750 ft 8:33 PM CDT Normal
Calico Rock, AR 68.9 °F 66 °F 89% North  at  0.0 mph 0.00 in / hr 666 ft 8:56 PM CDT Rapid Fire
Twin Creek, Melbourne, AR 68.7 °F 65 °F 89% North  at  1.7 mph 0.00 in / hr 451 ft 8:56 PM CDT Rapid Fire

Show More Stations Show Fewer Stations